sensor_id;sensor_type;location;lat;lon;timestamp;P1;durP1;ratioP1;P2;durP2;ratioP2
25327;SDS011;13279;51.300;12.394;2023-06-05T00:01:55;3.93;;;1.40;;
25327;SDS011;13279;51.300;12.394;2023-06-05T00:04:23;3.37;;;1.57;;
25327;SDS011;13279;51.300;12.394;2023-06-05T00:06:50;4.50;;;1.80;;
25327;SDS011;13279;51.300;12.394;2023-06-05T00:09:20;1.93;;;1.40;;
25327;SDS011;13279;51.300;12.394;2023-06-05T00:11:48;1.60;;;1.30;;
25327;SDS011;13279;51.300;12.394;2023-06-05T00:14:16;1.50;;;1.40;;
25327;SDS011;13279;51.300;12.394;2023-06-05T00:16:47;4.20;;;1.50;;
25327;SDS011;13279;51.300;12.394;2023-06-05T00:19:17;1.60;;;1.50;;
25327;SDS011;13279;51.300;12.394;2023-06-05T00:21:45;1.97;;;1.40;;
25327;SDS011;13279;51.300;12.394;2023-06-05T00:24:13;2.00;;;1.30;;
25327;SDS011;13279;51.300;12.394;2023-06-05T00:26:44;2.00;;;1.30;;
25327;SDS011;13279;51.300;12.394;2023-06-05T00:29:12;6.07;;;1.53;;
25327;SDS011;13279;51.300;12.394;2023-06-05T00:31:42;2.63;;;1.40;;
25327;SDS011;13279;51.300;12.394;2023-06-05T00:34:13;1.57;;;1.43;;
25327;SDS011;13279;51.300;12.394;2023-06-05T00:36:41;3.20;;;1.40;;
25327;SDS011;13279;51.300;12.394;2023-06-05T00:39:09;3.80;;;2.17;;
25327;SDS011;13279;51.300;12.394;2023-06-05T00:41:37;5.50;;;1.57;;
25327;SDS011;13279;51.300;12.394;2023-06-05T00:44:07;2.27;;;1.40;;
25327;SDS011;13279;51.300;12.394;2023-06-05T00:46:36;3.47;;;1.50;;
25327;SDS011;13279;51.300;12.394;2023-06-05T00:49:05;1.57;;;1.40;;
25327;SDS011;13279;51.300;12.394;2023-06-05T00:51:35;2.47;;;1.30;;
25327;SDS011;13279;51.300;12.394;2023-06-05T00:54:06;3.33;;;1.53;;
25327;SDS011;13279;51.300;12.394;2023-06-05T00:56:35;2.20;;;1.20;;
25327;SDS011;13279;51.300;12.394;2023-06-05T00:59:05;1.87;;;1.40;;
25327;SDS011;13279;51.300;12.394;2023-06-05T01:01:36;5.27;;;1.57;;
25327;SDS011;13279;51.300;12.394;2023-06-05T01:04:06;3.13;;;1.60;;
25327;SDS011;13279;51.300;12.394;2023-06-05T01:06:35;4.70;;;2.33;;
25327;SDS011;13279;51.300;12.394;2023-06-05T01:09:12;1.20;;;1.10;;
25327;SDS011;13279;51.300;12.394;2023-06-05T01:12:00;3.97;;;1.60;;
25327;SDS011;13279;51.300;12.394;2023-06-05T01:15:18;1.40;;;1.30;;
25327;SDS011;13279;51.300;12.394;2023-06-05T01:17:56;2.73;;;1.50;;
25327;SDS011;13279;51.300;12.394;2023-06-05T01:20:36;1.40;;;1.07;;
25327;SDS011;13279;51.300;12.394;2023-06-05T01:23:15;3.60;;;1.37;;
25327;SDS011;13279;51.300;12.394;2023-06-05T01:26:28;4.70;;;1.53;;
25327;SDS011;13279;51.300;12.394;2023-06-05T01:29:15;1.47;;;1.37;;
25327;SDS011;13279;51.300;12.394;2023-06-05T01:32:01;4.17;;;1.60;;
25327;SDS011;13279;51.300;12.394;2023-06-05T01:34:52;1.47;;;1.37;;
25327;SDS011;13279;51.300;12.394;2023-06-05T01:37:41;2.27;;;1.80;;
25327;SDS011;13279;51.300;12.394;2023-06-05T01:40:20;1.90;;;1.50;;
25327;SDS011;13279;51.300;12.394;2023-06-05T01:46:28;3.90;;;1.30;;
25327;SDS011;13279;51.300;12.394;2023-06-05T01:49:10;6.53;;;1.60;;
25327;SDS011;13279;51.300;12.394;2023-06-05T01:51:59;2.63;;;1.50;;
25327;SDS011;13279;51.300;12.394;2023-06-05T01:54:42;5.03;;;1.23;;
25327;SDS011;13279;51.300;12.394;2023-06-05T01:57:36;12.33;;;1.90;;
25327;SDS011;13279;51.300;12.394;2023-06-05T02:00:09;2.37;;;1.47;;
25327;SDS011;13279;51.300;12.394;2023-06-05T02:02:51;3.13;;;1.47;;
25327;SDS011;13279;51.300;12.394;2023-06-05T02:05:51;2.40;;;1.77;;
25327;SDS011;13279;51.300;12.394;2023-06-05T02:08:34;1.70;;;1.60;;
25327;SDS011;13279;51.300;12.394;2023-06-05T02:11:42;2.67;;;1.63;;
25327;SDS011;13279;51.300;12.394;2023-06-05T02:14:34;1.77;;;1.30;;
25327;SDS011;13279;51.300;12.394;2023-06-05T02:17:15;1.73;;;1.50;;
25327;SDS011;13279;51.300;12.394;2023-06-05T02:20:13;2.97;;;1.73;;
25327;SDS011;13279;51.300;12.394;2023-06-05T02:22:47;5.13;;;1.40;;
25327;SDS011;13279;51.300;12.394;2023-06-05T02:25:45;2.17;;;1.20;;
25327;SDS011;13279;51.300;12.394;2023-06-05T02:28:31;3.00;;;1.67;;
25327;SDS011;13279;51.300;12.394;2023-06-05T02:31:22;2.40;;;1.87;;
25327;SDS011;13279;51.300;12.394;2023-06-05T02:34:22;3.43;;;1.50;;
25327;SDS011;13279;51.300;12.394;2023-06-05T02:36:51;1.20;;;1.13;;
25327;SDS011;13279;51.300;12.394;2023-06-05T02:39:26;3.57;;;2.00;;
25327;SDS011;13279;51.300;12.394;2023-06-05T02:42:09;3.37;;;2.43;;
25327;SDS011;13279;51.300;12.394;2023-06-05T02:44:54;2.53;;;1.60;;
25327;SDS011;13279;51.300;12.394;2023-06-05T02:47:37;3.13;;;1.67;;
25327;SDS011;13279;51.300;12.394;2023-06-05T02:50:33;2.83;;;1.83;;
25327;SDS011;13279;51.300;12.394;2023-06-05T02:53:24;2.03;;;1.80;;
25327;SDS011;13279;51.300;12.394;2023-06-05T02:56:03;1.80;;;1.70;;
25327;SDS011;13279;51.300;12.394;2023-06-05T02:58:49;4.20;;;1.90;;
25327;SDS011;13279;51.300;12.394;2023-06-05T03:01:38;4.17;;;1.67;;
25327;SDS011;13279;51.300;12.394;2023-06-05T03:07:21;3.97;;;1.30;;
25327;SDS011;13279;51.300;12.394;2023-06-05T03:10:09;8.20;;;1.63;;
25327;SDS011;13279;51.300;12.394;2023-06-05T03:12:37;3.77;;;1.90;;
25327;SDS011;13279;51.300;12.394;2023-06-05T03:15:21;1.80;;;1.70;;
25327;SDS011;13279;51.300;12.394;2023-06-05T03:17:53;5.40;;;2.03;;
25327;SDS011;13279;51.300;12.394;2023-06-05T03:20:36;3.63;;;1.57;;
25327;SDS011;13279;51.300;12.394;2023-06-05T03:23:29;3.97;;;2.07;;
25327;SDS011;13279;51.300;12.394;2023-06-05T03:26:25;3.33;;;1.60;;
25327;SDS011;13279;51.300;12.394;2023-06-05T03:29:13;3.93;;;1.67;;
25327;SDS011;13279;51.300;12.394;2023-06-05T03:34:16;1.93;;;1.73;;
25327;SDS011;13279;51.300;12.394;2023-06-05T03:35:31;3.87;;;1.87;;
25327;SDS011;13279;51.300;12.394;2023-06-05T03:38:24;4.43;;;2.07;;
25327;SDS011;13279;51.300;12.394;2023-06-05T03:45:29;8.53;;;1.90;;
25327;SDS011;13279;51.300;12.394;2023-06-05T03:48:20;11.03;;;2.10;;
25327;SDS011;13279;51.300;12.394;2023-06-05T03:51:24;4.97;;;2.37;;
25327;SDS011;13279;51.300;12.394;2023-06-05T03:57:53;5.30;;;2.10;;
25327;SDS011;13279;51.300;12.394;2023-06-05T04:04:19;5.97;;;1.87;;
25327;SDS011;13279;51.300;12.394;2023-06-05T04:07:11;12.23;;;1.93;;
25327;SDS011;13279;51.300;12.394;2023-06-05T04:09:47;4.40;;;1.87;;
25327;SDS011;13279;51.300;12.394;2023-06-05T04:12:50;3.90;;;1.83;;
25327;SDS011;13279;51.300;12.394;2023-06-05T04:16:03;3.27;;;2.00;;
25327;SDS011;13279;51.300;12.394;2023-06-05T04:18:57;2.70;;;1.77;;
25327;SDS011;13279;51.300;12.394;2023-06-05T04:21:45;4.33;;;1.83;;
25327;SDS011;13279;51.300;12.394;2023-06-05T04:24:31;3.97;;;1.90;;
25327;SDS011;13279;51.300;12.394;2023-06-05T04:30:22;2.53;;;2.33;;
25327;SDS011;13279;51.300;12.394;2023-06-05T04:32:50;3.03;;;2.40;;
25327;SDS011;13279;51.300;12.394;2023-06-05T04:35:21;3.43;;;1.73;;
25327;SDS011;13279;51.300;12.394;2023-06-05T04:37:48;2.83;;;1.77;;
25327;SDS011;13279;51.300;12.394;2023-06-05T04:40:24;1.87;;;1.57;;
25327;SDS011;13279;51.300;12.394;2023-06-05T04:42:54;3.43;;;1.70;;
25327;SDS011;13279;51.300;12.394;2023-06-05T04:46:10;3.03;;;1.93;;
25327;SDS011;13279;51.300;12.394;2023-06-05T04:49:51;2.00;;;1.90;;
25327;SDS011;13279;51.300;12.394;2023-06-05T04:53:05;7.63;;;2.43;;
25327;SDS011;13279;51.300;12.394;2023-06-05T05:23:29;4.33;;;2.10;;
25327;SDS011;13279;51.300;12.394;2023-06-05T05:25:57;5.17;;;2.10;;
25327;SDS011;13279;51.300;12.394;2023-06-05T05:28:26;6.87;;;2.37;;
25327;SDS011;13279;51.300;12.394;2023-06-05T05:30:54;3.47;;;2.40;;
25327;SDS011;13279;51.300;12.394;2023-06-05T05:36:25;5.83;;;2.10;;
25327;SDS011;13279;51.300;12.394;2023-06-05T05:39:19;4.13;;;1.93;;
25327;SDS011;13279;51.300;12.394;2023-06-05T05:42:17;7.03;;;2.00;;
25327;SDS011;13279;51.300;12.394;2023-06-05T05:45:09;8.20;;;2.20;;
25327;SDS011;13279;51.300;12.394;2023-06-05T05:48:06;4.33;;;2.27;;
25327;SDS011;13279;51.300;12.394;2023-06-05T05:50:46;3.17;;;2.30;;
25327;SDS011;13279;51.300;12.394;2023-06-05T05:53:35;4.77;;;1.83;;
25327;SDS011;13279;51.300;12.394;2023-06-05T05:57:47;18.13;;;2.10;;
25327;SDS011;13279;51.300;12.394;2023-06-05T05:59:54;9.97;;;2.03;;
25327;SDS011;13279;51.300;12.394;2023-06-05T06:06:25;4.20;;;1.73;;
25327;SDS011;13279;51.300;12.394;2023-06-05T06:09:23;2.67;;;2.30;;
25327;SDS011;13279;51.300;12.394;2023-06-05T06:12:06;4.43;;;2.03;;
25327;SDS011;13279;51.300;12.394;2023-06-05T06:14:57;7.20;;;2.30;;
25327;SDS011;13279;51.300;12.394;2023-06-05T06:25:24;2.17;;;1.80;;
25327;SDS011;13279;51.300;12.394;2023-06-05T06:28:24;7.13;;;2.10;;
25327;SDS011;13279;51.300;12.394;2023-06-05T06:34:21;8.67;;;2.30;;
25327;SDS011;13279;51.300;12.394;2023-06-05T06:37:10;8.70;;;2.30;;
25327;SDS011;13279;51.300;12.394;2023-06-05T06:40:07;2.30;;;1.70;;
25327;SDS011;13279;51.300;12.394;2023-06-05T06:43:04;7.17;;;2.20;;
25327;SDS011;13279;51.300;12.394;2023-06-05T06:46:12;7.03;;;2.13;;
25327;SDS011;13279;51.300;12.394;2023-06-05T06:49:03;6.30;;;2.17;;
25327;SDS011;13279;51.300;12.394;2023-06-05T06:51:48;2.70;;;2.20;;
25327;SDS011;13279;51.300;12.394;2023-06-05T06:54:27;8.80;;;2.30;;
25327;SDS011;13279;51.300;12.394;2023-06-05T06:57:14;4.93;;;2.00;;
25327;SDS011;13279;51.300;12.394;2023-06-05T07:03:21;6.20;;;2.43;;
25327;SDS011;13279;51.300;12.394;2023-06-05T07:06:17;4.83;;;2.20;;
25327;SDS011;13279;51.300;12.394;2023-06-05T07:09:03;6.03;;;2.30;;
25327;SDS011;13279;51.300;12.394;2023-06-05T07:12:20;10.17;;;2.40;;
25327;SDS011;13279;51.300;12.394;2023-06-05T07:15:17;11.73;;;2.37;;
25327;SDS011;13279;51.300;12.394;2023-06-05T07:18:08;9.07;;;3.13;;
25327;SDS011;13279;51.300;12.394;2023-06-05T07:21:18;3.33;;;2.00;;
25327;SDS011;13279;51.300;12.394;2023-06-05T07:24:11;3.70;;;2.37;;
25327;SDS011;13279;51.300;12.394;2023-06-05T07:27:03;3.87;;;2.30;;
25327;SDS011;13279;51.300;12.394;2023-06-05T07:30:16;8.20;;;2.13;;
25327;SDS011;13279;51.300;12.394;2023-06-05T07:32:57;2.90;;;1.93;;
25327;SDS011;13279;51.300;12.394;2023-06-05T07:35:49;4.57;;;1.90;;
25327;SDS011;13279;51.300;12.394;2023-06-05T07:39:04;3.17;;;2.10;;
25327;SDS011;13279;51.300;12.394;2023-06-05T07:41:41;5.30;;;2.20;;
25327;SDS011;13279;51.300;12.394;2023-06-05T07:44:36;3.03;;;2.33;;
25327;SDS011;13279;51.300;12.394;2023-06-05T07:47:12;4.80;;;2.00;;
25327;SDS011;13279;51.300;12.394;2023-06-05T07:50:25;3.97;;;2.00;;
25327;SDS011;13279;51.300;12.394;2023-06-05T07:53:32;3.27;;;2.47;;
25327;SDS011;13279;51.300;12.394;2023-06-05T07:59:35;5.67;;;2.10;;
25327;SDS011;13279;51.300;12.394;2023-06-05T08:02:35;5.30;;;2.03;;
25327;SDS011;13279;51.300;12.394;2023-06-05T08:05:51;7.20;;;2.13;;
25327;SDS011;13279;51.300;12.394;2023-06-05T08:08:38;5.77;;;2.20;;
25327;SDS011;13279;51.300;12.394;2023-06-05T08:11:31;7.00;;;2.37;;
25327;SDS011;13279;51.300;12.394;2023-06-05T08:14:27;4.23;;;2.10;;
25327;SDS011;13279;51.300;12.394;2023-06-05T08:17:27;8.10;;;2.30;;
25327;SDS011;13279;51.300;12.394;2023-06-05T08:20:21;7.30;;;2.57;;
25327;SDS011;13279;51.300;12.394;2023-06-05T08:23:13;3.03;;;2.33;;
25327;SDS011;13279;51.300;12.394;2023-06-05T08:25:58;6.70;;;2.50;;
25327;SDS011;13279;51.300;12.394;2023-06-05T08:28:33;5.93;;;2.20;;
25327;SDS011;13279;51.300;12.394;2023-06-05T08:31:51;2.70;;;2.07;;
25327;SDS011;13279;51.300;12.394;2023-06-05T08:35:15;7.93;;;2.13;;
25327;SDS011;13279;51.300;12.394;2023-06-05T08:40:28;2.07;;;1.87;;
25327;SDS011;13279;51.300;12.394;2023-06-05T08:43:34;5.03;;;2.00;;
25327;SDS011;13279;51.300;12.394;2023-06-05T08:46:39;2.33;;;1.90;;
25327;SDS011;13279;51.300;12.394;2023-06-05T09:19:28;8.83;;;1.53;;
25327;SDS011;13279;51.300;12.394;2023-06-05T09:22:38;2.57;;;1.60;;
25327;SDS011;13279;51.300;12.394;2023-06-05T09:28:28;3.23;;;1.50;;
25327;SDS011;13279;51.300;12.394;2023-06-05T09:32:58;3.00;;;1.97;;
25327;SDS011;13279;51.300;12.394;2023-06-05T10:55:52;8.13;;;1.73;;
25327;SDS011;13279;51.300;12.394;2023-06-05T10:58:23;7.83;;;1.83;;
25327;SDS011;13279;51.300;12.394;2023-06-05T11:03:55;5.00;;;1.80;;
25327;SDS011;13279;51.300;12.394;2023-06-05T11:06:25;5.00;;;1.77;;
25327;SDS011;13279;51.300;12.394;2023-06-05T11:09:09;4.80;;;1.63;;
25327;SDS011;13279;51.300;12.394;2023-06-05T11:11:56;2.20;;;1.80;;
25327;SDS011;13279;51.300;12.394;2023-06-05T11:14:42;3.93;;;2.30;;
25327;SDS011;13279;51.300;12.394;2023-06-05T11:17:30;7.77;;;1.97;;
25327;SDS011;13279;51.300;12.394;2023-06-05T11:19:59;4.10;;;2.10;;
25327;SDS011;13279;51.300;12.394;2023-06-05T11:22:31;2.03;;;1.50;;
25327;SDS011;13279;51.300;12.394;2023-06-05T11:27:54;6.13;;;2.03;;
25327;SDS011;13279;51.300;12.394;2023-06-05T11:30:24;7.40;;;2.23;;
25327;SDS011;13279;51.300;12.394;2023-06-05T11:32:55;2.40;;;1.87;;
25327;SDS011;13279;51.300;12.394;2023-06-05T11:35:24;4.33;;;1.83;;
25327;SDS011;13279;51.300;12.394;2023-06-05T11:38:12;6.50;;;2.23;;
25327;SDS011;13279;51.300;12.394;2023-06-05T11:40:43;5.93;;;2.33;;
25327;SDS011;13279;51.300;12.394;2023-06-05T11:43:13;7.07;;;2.23;;
25327;SDS011;13279;51.300;12.394;2023-06-05T11:45:48;3.37;;;2.47;;
25327;SDS011;13279;51.300;12.394;2023-06-05T11:48:20;8.87;;;2.50;;
25327;SDS011;13279;51.300;12.394;2023-06-05T11:50:52;3.90;;;2.03;;
25327;SDS011;13279;51.300;12.394;2023-06-05T11:53:21;7.07;;;1.92;;
25327;SDS011;13279;51.300;12.394;2023-06-05T11:55:51;2.33;;;2.08;;
25327;SDS011;13279;51.300;12.394;2023-06-05T11:58:34;5.63;;;2.40;;
25327;SDS011;13279;51.300;12.394;2023-06-05T12:01:04;8.93;;;2.22;;
25327;SDS011;13279;51.300;12.394;2023-06-05T12:03:33;6.78;;;2.65;;
25327;SDS011;13279;51.300;12.394;2023-06-05T12:06:01;3.53;;;2.40;;
25327;SDS011;13279;51.300;12.394;2023-06-05T12:08:29;6.20;;;2.75;;
25327;SDS011;13279;51.300;12.394;2023-06-05T12:10:59;2.10;;;1.90;;
25327;SDS011;13279;51.300;12.394;2023-06-05T12:13:47;9.38;;;2.20;;
25327;SDS011;13279;51.300;12.394;2023-06-05T12:16:15;5.47;;;1.98;;
25327;SDS011;13279;51.300;12.394;2023-06-05T12:18:44;7.90;;;2.20;;
25327;SDS011;13279;51.300;12.394;2023-06-05T12:21:19;6.50;;;2.63;;
25327;SDS011;13279;51.300;12.394;2023-06-05T12:23:48;2.97;;;2.58;;
25327;SDS011;13279;51.300;12.394;2023-06-05T12:26:15;3.58;;;1.95;;
25327;SDS011;13279;51.300;12.394;2023-06-05T12:28:44;3.53;;;2.40;;
25327;SDS011;13279;51.300;12.394;2023-06-05T12:34:02;2.85;;;2.33;;
25327;SDS011;13279;51.300;12.394;2023-06-05T12:36:30;4.35;;;2.25;;
25327;SDS011;13279;51.300;12.394;2023-06-05T12:39:04;2.75;;;2.08;;
25327;SDS011;13279;51.300;12.394;2023-06-05T12:41:32;4.80;;;2.17;;
25327;SDS011;13279;51.300;12.394;2023-06-05T12:44:00;2.40;;;2.17;;
25327;SDS011;13279;51.300;12.394;2023-06-05T12:46:29;6.23;;;2.10;;
25327;SDS011;13279;51.300;12.394;2023-06-05T12:48:59;3.27;;;2.40;;
25327;SDS011;13279;51.300;12.394;2023-06-05T12:51:27;4.33;;;2.37;;
25327;SDS011;13279;51.300;12.394;2023-06-05T12:53:55;7.03;;;2.40;;
25327;SDS011;13279;51.300;12.394;2023-06-05T12:56:23;4.47;;;2.27;;
25327;SDS011;13279;51.300;12.394;2023-06-05T12:58:53;7.53;;;2.60;;
25327;SDS011;13279;51.300;12.394;2023-06-05T13:01:21;4.40;;;2.30;;
25327;SDS011;13279;51.300;12.394;2023-06-05T13:03:50;2.30;;;2.10;;
25327;SDS011;13279;51.300;12.394;2023-06-05T13:06:20;7.40;;;2.67;;
25327;SDS011;13279;51.300;12.394;2023-06-05T13:08:47;4.27;;;2.23;;
25327;SDS011;13279;51.300;12.394;2023-06-05T13:11:16;8.50;;;2.80;;
25327;SDS011;13279;51.300;12.394;2023-06-05T13:13:43;3.80;;;2.50;;
25327;SDS011;13279;51.300;12.394;2023-06-05T13:16:11;3.23;;;2.13;;
25327;SDS011;13279;51.300;12.394;2023-06-05T13:18:38;3.57;;;2.50;;
25327;SDS011;13279;51.300;12.394;2023-06-05T13:21:06;2.80;;;2.28;;
25327;SDS011;13279;51.300;12.394;2023-06-05T13:23:35;6.50;;;2.33;;
25327;SDS011;13279;51.300;12.394;2023-06-05T13:26:03;12.57;;;2.78;;
25327;SDS011;13279;51.300;12.394;2023-06-05T13:28:30;3.83;;;2.50;;
25327;SDS011;13279;51.300;12.394;2023-06-05T13:30:58;7.30;;;2.33;;
25327;SDS011;13279;51.300;12.394;2023-06-05T13:33:26;2.28;;;2.00;;
25327;SDS011;13279;51.300;12.394;2023-06-05T13:35:55;3.80;;;2.03;;
25327;SDS011;13279;51.300;12.394;2023-06-05T13:38:24;1.77;;;1.65;;
25327;SDS011;13279;51.300;12.394;2023-06-05T13:40:53;6.53;;;2.97;;
25327;SDS011;13279;51.300;12.394;2023-06-05T13:43:20;4.07;;;2.40;;
25327;SDS011;13279;51.300;12.394;2023-06-05T13:45:48;3.75;;;2.38;;
25327;SDS011;13279;51.300;12.394;2023-06-05T13:48:15;3.38;;;2.40;;
25327;SDS011;13279;51.300;12.394;2023-06-05T13:50:43;2.53;;;2.33;;
25327;SDS011;13279;51.300;12.394;2023-06-05T13:53:11;7.70;;;2.50;;
25327;SDS011;13279;51.300;12.394;2023-06-05T13:55:38;3.47;;;2.60;;
25327;SDS011;13279;51.300;12.394;2023-06-05T13:58:08;5.43;;;2.55;;
25327;SDS011;13279;51.300;12.394;2023-06-05T14:00:37;7.80;;;2.75;;
25327;SDS011;13279;51.300;12.394;2023-06-05T14:03:04;2.53;;;2.13;;
25327;SDS011;13279;51.300;12.394;2023-06-05T14:05:32;2.80;;;2.60;;
25327;SDS011;13279;51.300;12.394;2023-06-05T14:07:59;4.88;;;2.20;;
25327;SDS011;13279;51.300;12.394;2023-06-05T14:10:30;5.47;;;2.42;;
25327;SDS011;13279;51.300;12.394;2023-06-05T14:13:03;5.75;;;2.30;;
25327;SDS011;13279;51.300;12.394;2023-06-05T14:15:34;5.95;;;2.53;;
25327;SDS011;13279;51.300;12.394;2023-06-05T14:18:02;3.60;;;2.50;;
25327;SDS011;13279;51.300;12.394;2023-06-05T14:20:33;2.60;;;2.40;;
25327;SDS011;13279;51.300;12.394;2023-06-05T14:23:01;2.70;;;2.50;;
25327;SDS011;13279;51.300;12.394;2023-06-05T14:25:29;3.22;;;2.60;;
25327;SDS011;13279;51.300;12.394;2023-06-05T14:27:57;3.22;;;2.47;;
25327;SDS011;13279;51.300;12.394;2023-06-05T14:30:25;3.28;;;2.58;;
25327;SDS011;13279;51.300;12.394;2023-06-05T14:32:54;4.10;;;2.70;;
25327;SDS011;13279;51.300;12.394;2023-06-05T14:35:22;2.83;;;2.33;;
25327;SDS011;13279;51.300;12.394;2023-06-05T14:37:50;4.30;;;2.45;;
25327;SDS011;13279;51.300;12.394;2023-06-05T14:40:18;3.08;;;2.50;;
25327;SDS011;13279;51.300;12.394;2023-06-05T14:42:45;2.97;;;2.72;;
25327;SDS011;13279;51.300;12.394;2023-06-05T14:45:13;4.45;;;2.60;;
25327;SDS011;13279;51.300;12.394;2023-06-05T14:47:40;2.72;;;2.53;;
25327;SDS011;13279;51.300;12.394;2023-06-05T14:50:11;5.72;;;2.50;;
25327;SDS011;13279;51.300;12.394;2023-06-05T14:52:38;3.20;;;2.30;;
25327;SDS011;13279;51.300;12.394;2023-06-05T14:55:06;7.03;;;2.70;;
25327;SDS011;13279;51.300;12.394;2023-06-05T14:57:34;6.30;;;2.30;;
25327;SDS011;13279;51.300;12.394;2023-06-05T15:00:03;2.72;;;2.33;;
25327;SDS011;13279;51.300;12.394;2023-06-05T15:02:31;2.97;;;2.50;;
25327;SDS011;13279;51.300;12.394;2023-06-05T15:05:01;5.70;;;2.67;;
25327;SDS011;13279;51.300;12.394;2023-06-05T15:07:36;7.80;;;2.20;;
25327;SDS011;13279;51.300;12.394;2023-06-05T15:10:06;3.22;;;2.38;;
25327;SDS011;13279;51.300;12.394;2023-06-05T15:12:34;3.55;;;2.47;;
25327;SDS011;13279;51.300;12.394;2023-06-05T15:15:02;5.32;;;2.78;;
25327;SDS011;13279;51.300;12.394;2023-06-05T15:17:30;7.00;;;2.60;;
25327;SDS011;13279;51.300;12.394;2023-06-05T15:19:58;5.65;;;2.90;;
25327;SDS011;13279;51.300;12.394;2023-06-05T15:22:25;2.65;;;2.45;;
25327;SDS011;13279;51.300;12.394;2023-06-05T15:24:54;2.33;;;2.22;;
25327;SDS011;13279;51.300;12.394;2023-06-05T15:27:22;2.40;;;2.20;;
25327;SDS011;13279;51.300;12.394;2023-06-05T15:29:50;3.10;;;2.30;;
25327;SDS011;13279;51.300;12.394;2023-06-05T15:32:17;2.65;;;2.17;;
25327;SDS011;13279;51.300;12.394;2023-06-05T15:34:45;4.25;;;2.28;;
25327;SDS011;13279;51.300;12.394;2023-06-05T15:37:12;4.78;;;1.88;;
25327;SDS011;13279;51.300;12.394;2023-06-05T15:39:41;7.57;;;2.53;;
25327;SDS011;13279;51.300;12.394;2023-06-05T15:42:10;9.75;;;2.72;;
25327;SDS011;13279;51.300;12.394;2023-06-05T15:44:38;4.60;;;2.88;;
25327;SDS011;13279;51.300;12.394;2023-06-05T15:47:06;7.97;;;2.35;;
25327;SDS011;13279;51.300;12.394;2023-06-05T15:49:34;2.75;;;2.53;;
25327;SDS011;13279;51.300;12.394;2023-06-05T15:52:01;6.93;;;2.78;;
25327;SDS011;13279;51.300;12.394;2023-06-05T15:54:29;4.88;;;2.20;;
25327;SDS011;13279;51.300;12.394;2023-06-05T15:57:01;7.40;;;2.83;;
25327;SDS011;13279;51.300;12.394;2023-06-05T15:59:30;10.55;;;2.70;;
25327;SDS011;13279;51.300;12.394;2023-06-05T16:01:57;3.10;;;2.70;;
25327;SDS011;13279;51.300;12.394;2023-06-05T16:04:25;3.55;;;2.17;;
25327;SDS011;13279;51.300;12.394;2023-06-05T16:06:52;2.53;;;2.33;;
25327;SDS011;13279;51.300;12.394;2023-06-05T16:09:20;4.50;;;2.60;;
25327;SDS011;13279;51.300;12.394;2023-06-05T16:11:48;5.63;;;2.20;;
25327;SDS011;13279;51.300;12.394;2023-06-05T16:14:16;4.78;;;2.22;;
25327;SDS011;13279;51.300;12.394;2023-06-05T16:16:45;4.70;;;2.60;;
25327;SDS011;13279;51.300;12.394;2023-06-05T16:19:13;2.37;;;2.17;;
25327;SDS011;13279;51.300;12.394;2023-06-05T16:21:40;4.85;;;2.67;;
25327;SDS011;13279;51.300;12.394;2023-06-05T16:24:08;4.17;;;2.30;;
25327;SDS011;13279;51.300;12.394;2023-06-05T16:26:35;5.57;;;2.40;;
25327;SDS011;13279;51.300;12.394;2023-06-05T16:29:03;2.20;;;2.00;;
25327;SDS011;13279;51.300;12.394;2023-06-05T16:31:31;4.10;;;2.10;;
25327;SDS011;13279;51.300;12.394;2023-06-05T16:34:00;2.93;;;2.40;;
25327;SDS011;13279;51.300;12.394;2023-06-05T16:36:35;4.57;;;2.27;;
25327;SDS011;13279;51.300;12.394;2023-06-05T16:39:02;2.73;;;2.50;;
25327;SDS011;13279;51.300;12.394;2023-06-05T16:41:30;9.27;;;2.43;;
25327;SDS011;13279;51.300;12.394;2023-06-05T16:43:58;2.97;;;2.50;;
25327;SDS011;13279;51.300;12.394;2023-06-05T16:46:26;6.30;;;2.60;;
25327;SDS011;13279;51.300;12.394;2023-06-05T16:48:54;2.70;;;2.13;;
25327;SDS011;13279;51.300;12.394;2023-06-05T16:51:24;7.20;;;3.20;;
25327;SDS011;13279;51.300;12.394;2023-06-05T16:53:51;5.27;;;2.37;;
25327;SDS011;13279;51.300;12.394;2023-06-05T16:56:19;5.00;;;2.60;;
25327;SDS011;13279;51.300;12.394;2023-06-05T16:58:47;2.97;;;2.70;;
25327;SDS011;13279;51.300;12.394;2023-06-05T17:01:14;2.10;;;2.00;;
25327;SDS011;13279;51.300;12.394;2023-06-05T17:03:44;3.80;;;2.60;;
25327;SDS011;13279;51.300;12.394;2023-06-05T17:06:16;6.97;;;2.37;;
25327;SDS011;13279;51.300;12.394;2023-06-05T17:08:45;3.07;;;2.40;;
25327;SDS011;13279;51.300;12.394;2023-06-05T17:11:16;5.43;;;2.40;;
25327;SDS011;13279;51.300;12.394;2023-06-05T17:14:25;4.57;;;2.33;;
25327;SDS011;13279;51.300;12.394;2023-06-05T17:17:22;4.73;;;2.40;;
25327;SDS011;13279;51.300;12.394;2023-06-05T17:20:27;2.50;;;2.27;;
25327;SDS011;13279;51.300;12.394;2023-06-05T17:23:36;6.93;;;2.43;;
25327;SDS011;13279;51.300;12.394;2023-06-05T17:26:41;2.80;;;2.10;;
25327;SDS011;13279;51.300;12.394;2023-06-05T17:29:17;5.03;;;2.97;;
25327;SDS011;13279;51.300;12.394;2023-06-05T17:32:19;5.50;;;2.90;;
25327;SDS011;13279;51.300;12.394;2023-06-05T17:35:27;3.60;;;2.20;;
25327;SDS011;13279;51.300;12.394;2023-06-05T17:38:40;4.70;;;2.43;;
25327;SDS011;13279;51.300;12.394;2023-06-05T17:42:13;4.00;;;2.40;;
25327;SDS011;13279;51.300;12.394;2023-06-05T17:45:07;4.87;;;2.70;;
25327;SDS011;13279;51.300;12.394;2023-06-05T17:48:26;9.53;;;2.57;;
25327;SDS011;13279;51.300;12.394;2023-06-05T17:51:26;6.63;;;2.30;;
25327;SDS011;13279;51.300;12.394;2023-06-05T17:57:32;4.60;;;2.60;;
25327;SDS011;13279;51.300;12.394;2023-06-05T18:00:57;4.40;;;2.70;;
25327;SDS011;13279;51.300;12.394;2023-06-05T18:07:29;8.17;;;2.23;;
25327;SDS011;13279;51.300;12.394;2023-06-05T18:09:59;5.60;;;2.10;;
25327;SDS011;13279;51.300;12.394;2023-06-05T18:12:31;7.43;;;2.50;;
25327;SDS011;13279;51.300;12.394;2023-06-05T18:14:58;2.83;;;2.33;;
25327;SDS011;13279;51.300;12.394;2023-06-05T18:17:35;3.13;;;2.53;;
25327;SDS011;13279;51.300;12.394;2023-06-05T18:23:18;8.27;;;2.80;;
25327;SDS011;13279;51.300;12.394;2023-06-05T18:26:18;4.30;;;2.53;;
25327;SDS011;13279;51.300;12.394;2023-06-05T18:39:39;3.00;;;2.10;;
25327;SDS011;13279;51.300;12.394;2023-06-05T18:42:51;3.47;;;2.63;;
25327;SDS011;13279;51.300;12.394;2023-06-05T18:49:40;3.57;;;2.30;;
25327;SDS011;13279;51.300;12.394;2023-06-05T18:52:46;8.40;;;2.37;;
25327;SDS011;13279;51.300;12.394;2023-06-05T18:59:27;3.63;;;2.50;;
25327;SDS011;13279;51.300;12.394;2023-06-05T19:06:25;6.17;;;2.57;;
25327;SDS011;13279;51.300;12.394;2023-06-05T19:09:11;6.70;;;2.43;;
25327;SDS011;13279;51.300;12.394;2023-06-05T19:12:00;3.23;;;2.57;;
25327;SDS011;13279;51.300;12.394;2023-06-05T19:14:56;3.03;;;2.40;;
25327;SDS011;13279;51.300;12.394;2023-06-05T19:17:58;3.83;;;2.03;;
25327;SDS011;13279;51.300;12.394;2023-06-05T19:20:51;10.40;;;2.87;;
25327;SDS011;13279;51.300;12.394;2023-06-05T19:23:56;13.23;;;3.47;;
25327;SDS011;13279;51.300;12.394;2023-06-05T19:30:06;6.03;;;2.37;;
25327;SDS011;13279;51.300;12.394;2023-06-05T19:33:00;6.17;;;3.10;;
25327;SDS011;13279;51.300;12.394;2023-06-05T19:35:56;3.40;;;2.50;;
25327;SDS011;13279;51.300;12.394;2023-06-05T19:38:44;5.90;;;2.67;;
25327;SDS011;13279;51.300;12.394;2023-06-05T19:41:43;8.03;;;2.97;;
25327;SDS011;13279;51.300;12.394;2023-06-05T19:44:54;11.83;;;3.20;;
25327;SDS011;13279;51.300;12.394;2023-06-05T19:47:42;8.50;;;2.80;;
25327;SDS011;13279;51.300;12.394;2023-06-05T19:50:38;4.30;;;2.80;;